createdAt,value
2018-11-28T00:00:54.681Z,92.83
2018-11-28T00:03:21.524Z,92.71
2018-11-28T00:05:48.361Z,92.60
2018-11-28T00:08:15.201Z,92.71
2018-11-28T00:10:42.049Z,91.54
2018-11-28T00:13:08.893Z,92.03
2018-11-28T00:15:36.400Z,92.95
2018-11-28T00:18:03.380Z,93.04
2018-11-28T00:20:30.280Z,92.93
2018-11-28T00:22:57.130Z,93.60
2018-11-28T00:25:24.030Z,93.40
2018-11-28T00:27:50.825Z,93.34
2018-11-28T00:30:19.488Z,93.38
2018-11-28T00:32:46.343Z,93.12
2018-11-28T00:35:14.132Z,93.13
2018-11-28T00:37:41.004Z,92.99
2018-11-28T00:40:09.760Z,93.35
2018-11-28T00:42:36.593Z,94.12
2018-11-28T00:45:05.392Z,93.88
2018-11-28T00:47:32.241Z,94.49
2018-11-28T00:49:59.093Z,94.26
2018-11-28T00:52:25.949Z,94.41
2018-11-28T00:54:52.807Z,93.16
2018-11-28T00:57:19.689Z,93.88
2018-11-28T00:59:46.558Z,94.15
2018-11-28T01:02:13.441Z,93.54
2018-11-28T01:04:40.280Z,92.30
2018-11-28T01:07:07.125Z,92.40
2018-11-28T01:09:33.985Z,93.07
2018-11-28T01:12:00.831Z,93.40
2018-11-28T01:14:27.677Z,93.50
2018-11-28T01:16:54.627Z,93.66
2018-11-28T01:19:21.472Z,93.87
2018-11-28T01:21:48.344Z,93.88
2018-11-28T01:24:15.185Z,92.91
2018-11-28T01:26:42.033Z,92.96
2018-11-28T01:29:08.874Z,93.28
2018-11-28T01:31:35.711Z,91.00
2018-11-28T01:34:02.569Z,92.17
2018-11-28T01:36:29.433Z,91.37
2018-11-28T01:38:56.278Z,91.00
2018-11-28T01:41:23.128Z,92.20
2018-11-28T01:43:49.988Z,92.77
2018-11-28T01:46:16.841Z,93.08
2018-11-28T01:48:43.730Z,92.90
2018-11-28T01:51:10.569Z,92.63
2018-11-28T01:53:37.435Z,92.16
2018-11-28T01:56:04.370Z,90.62
2018-11-28T01:58:31.210Z,92.63
2018-11-28T02:00:58.021Z,92.23
2018-11-28T02:03:24.861Z,92.56
2018-11-28T02:05:51.706Z,92.36
2018-11-28T02:08:18.572Z,92.66
2018-11-28T02:10:45.433Z,93.57
2018-11-28T02:13:12.281Z,94.20
2018-11-28T02:15:40.341Z,94.39
2018-11-28T02:18:07.188Z,94.10
2018-11-28T02:20:34.064Z,95.29
2018-11-28T02:23:00.927Z,95.49
2018-11-28T02:25:27.796Z,95.66
2018-11-28T02:27:54.664Z,95.20
2018-11-28T02:30:21.545Z,92.50
2018-11-28T02:32:48.950Z,93.47
2018-11-28T02:35:16.242Z,94.75
2018-11-28T02:37:43.142Z,95.53
2018-11-28T02:40:11.834Z,95.17
2018-11-28T02:42:38.747Z,95.50
2018-11-28T02:45:22.579Z,95.25
2018-11-28T02:47:50.386Z,94.89
2018-11-28T02:50:17.307Z,94.56
2018-11-28T02:52:44.181Z,93.30
2018-11-28T02:55:11.920Z,94.01
2018-11-28T02:57:39.146Z,94.62
2018-11-28T03:00:13.790Z,96.16
2018-11-28T03:02:40.671Z,95.73
2018-11-28T03:05:09.029Z,95.40
2018-11-28T03:07:35.900Z,95.05
2018-11-28T03:10:03.222Z,94.45
2018-11-28T03:12:30.088Z,94.86
2018-11-28T03:14:56.957Z,93.83
2018-11-28T03:17:24.806Z,95.33
2018-11-28T03:19:51.770Z,95.04
2018-11-28T03:22:18.677Z,94.70
2018-11-28T03:24:45.541Z,94.46
2018-11-28T03:27:12.409Z,92.37
2018-11-28T03:29:39.278Z,93.33
2018-11-28T03:32:06.146Z,93.75
2018-11-28T03:34:33.016Z,94.15
2018-11-28T03:36:59.889Z,94.49
2018-11-28T03:39:26.757Z,94.71
2018-11-28T03:41:53.626Z,94.63
2018-11-28T03:44:20.498Z,92.56
2018-11-28T03:46:47.371Z,93.06
2018-11-28T03:49:14.229Z,93.14
2018-11-28T03:51:41.105Z,94.62
2018-11-28T03:54:07.979Z,95.18
2018-11-28T03:56:34.862Z,94.86
2018-11-28T03:59:01.730Z,95.62
2018-11-28T04:01:28.601Z,96.41
2018-11-28T04:03:55.485Z,97.15
2018-11-28T04:06:22.348Z,96.93
2018-11-28T04:08:49.228Z,96.55
2018-11-28T04:11:16.102Z,96.78
2018-11-28T04:13:42.993Z,96.76
2018-11-28T04:16:09.861Z,96.30
2018-11-28T04:18:36.727Z,95.77
2018-11-28T04:21:03.616Z,96.12
2018-11-28T04:23:30.503Z,95.46
2018-11-28T04:25:57.369Z,95.46
2018-11-28T04:28:24.275Z,95.86
2018-11-28T04:30:51.165Z,95.40
2018-11-28T04:33:18.160Z,96.68
2018-11-28T04:35:45.029Z,97.05
2018-11-28T04:38:11.898Z,97.47
2018-11-28T04:40:39.723Z,97.76
2018-11-28T04:43:06.561Z,96.98
2018-11-28T04:45:33.422Z,97.61
2018-11-28T04:48:00.260Z,97.52
2018-11-28T04:50:27.116Z,98.26
2018-11-28T04:52:53.980Z,96.94
2018-11-28T04:55:20.830Z,94.29
2018-11-28T04:57:47.798Z,93.74
2018-11-28T05:00:16.642Z,95.05
2018-11-28T05:02:43.504Z,96.03
2018-11-28T05:05:10.605Z,94.81
2018-11-28T05:07:37.510Z,94.37
2018-11-28T05:10:09.439Z,96.68
2018-11-28T05:12:36.285Z,97.23
2018-11-28T05:15:03.756Z,98.05
2018-11-28T05:17:30.617Z,97.77
2018-11-28T05:19:57.476Z,98.76
2018-11-28T05:22:24.325Z,98.80
2018-11-28T05:24:51.177Z,99.18
2018-11-28T05:27:18.023Z,98.22
2018-11-28T05:29:44.889Z,97.69
2018-11-28T05:32:11.741Z,97.23
2018-11-28T05:34:38.585Z,97.10
2018-11-28T05:37:05.738Z,97.16
2018-11-28T05:39:32.589Z,96.97
2018-11-28T05:41:59.445Z,97.47
2018-11-28T05:44:26.282Z,95.99
2018-11-28T05:46:53.140Z,97.08
2018-11-28T05:49:20.473Z,95.85
2018-11-28T05:51:47.349Z,96.28
2018-11-28T05:54:14.206Z,97.05
2018-11-28T05:56:41.045Z,95.22
2018-11-28T05:59:07.923Z,96.58
2018-11-28T06:01:34.788Z,95.63
2018-11-28T06:04:01.637Z,95.02
2018-11-28T06:06:28.492Z,96.18
2018-11-28T06:08:55.337Z,95.24
2018-11-28T06:11:22.194Z,96.36
2018-11-28T06:13:49.027Z,95.92
2018-11-28T06:16:15.881Z,97.04
2018-11-28T06:18:42.735Z,96.75
2018-11-28T06:21:09.583Z,97.07
2018-11-28T06:23:36.420Z,95.61
2018-11-28T06:26:03.276Z,96.22
2018-11-28T06:28:30.130Z,95.63
2018-11-28T06:30:56.970Z,96.35
2018-11-28T06:33:23.825Z,96.37
2018-11-28T06:35:50.677Z,96.55
2018-11-28T06:38:17.533Z,96.87
2018-11-28T06:40:44.380Z,96.08
2018-11-28T06:43:11.263Z,96.19
2018-11-28T06:45:38.109Z,96.58
2018-11-28T06:48:05.001Z,96.44
2018-11-28T06:50:31.862Z,96.67
2018-11-28T06:52:58.713Z,96.46
2018-11-28T06:55:25.577Z,95.53
2018-11-28T06:57:52.448Z,95.87
2018-11-28T07:00:21.038Z,96.06
2018-11-28T07:02:48.802Z,96.33
2018-11-28T07:05:15.652Z,97.17
2018-11-28T07:07:42.499Z,96.35
2018-11-28T07:10:11.509Z,94.11
2018-11-28T07:12:38.441Z,94.83
2018-11-28T07:15:08.121Z,94.19
2018-11-28T07:17:35.024Z,95.24
2018-11-28T07:20:01.873Z,93.20
2018-11-28T07:22:28.746Z,93.93
2018-11-28T07:24:55.597Z,94.16
2018-11-28T07:27:23.302Z,94.93
2018-11-28T07:29:49.297Z,93.48
2018-11-28T07:32:16.149Z,94.71
2018-11-28T07:34:43.025Z,93.44
2018-11-28T07:37:09.885Z,95.28
2018-11-28T07:39:36.754Z,93.68
2018-11-28T07:42:03.677Z,94.30
2018-11-28T07:44:30.537Z,94.84
2018-11-28T07:46:57.393Z,95.40
2018-11-28T07:49:24.248Z,94.07
2018-11-28T07:51:51.085Z,94.63
2018-11-28T07:54:17.950Z,94.83
2018-11-28T07:56:44.828Z,94.07
2018-11-28T07:59:11.682Z,93.39
2018-11-28T08:01:38.537Z,94.71
2018-11-28T08:04:05.526Z,95.36
2018-11-28T08:06:32.393Z,94.54
2018-11-28T08:08:59.234Z,93.56
2018-11-28T08:11:26.103Z,94.29
2018-11-28T08:13:53.021Z,93.47
2018-11-28T08:16:20.527Z,93.53
2018-11-28T08:18:47.652Z,93.17
2018-11-28T08:21:14.931Z,91.86
2018-11-28T08:23:41.817Z,93.55
2018-11-28T08:26:08.708Z,92.66
2018-11-28T08:28:36.154Z,94.01
2018-11-28T08:31:02.402Z,94.81
2018-11-28T08:33:29.249Z,93.32
2018-11-28T08:35:56.104Z,93.56
2018-11-28T08:38:22.952Z,93.02
2018-11-28T08:40:49.809Z,91.75
2018-11-28T08:43:16.660Z,92.88
2018-11-28T08:45:43.620Z,92.59
2018-11-28T08:48:15.033Z,91.60
2018-11-28T08:50:41.885Z,92.36
2018-11-28T08:53:08.740Z,92.82
2018-11-28T08:55:35.601Z,92.52
2018-11-28T08:58:02.456Z,93.51
2018-11-28T09:00:29.305Z,92.42
2018-11-28T09:02:57.090Z,92.49
2018-11-28T09:05:23.952Z,92.75
2018-11-28T09:07:50.791Z,92.40
2018-11-28T09:10:18.349Z,92.93
2018-11-28T09:12:45.845Z,93.83
2018-11-28T09:15:27.062Z,93.51
2018-11-28T09:17:54.184Z,93.27
2018-11-28T09:20:21.036Z,93.04
2018-11-28T09:22:47.944Z,93.22
2018-11-28T09:25:16.389Z,92.68
2018-11-28T09:27:44.288Z,92.69
2018-11-28T09:30:14.867Z,92.31
2018-11-28T09:32:41.782Z,92.42
2018-11-28T09:35:09.586Z,92.12
2018-11-28T09:37:36.442Z,92.12
2018-11-28T09:40:06.881Z,92.22
2018-11-28T09:42:33.741Z,90.98
2018-11-28T09:47:51.097Z,92.64
2018-11-28T09:50:20.779Z,92.07
2018-11-28T09:52:47.658Z,92.18
2018-11-28T09:55:15.553Z,92.49
2018-11-28T09:57:42.445Z,92.48
2018-11-28T10:00:19.846Z,91.93
2018-11-28T10:02:47.114Z,91.55
2018-11-28T10:05:17.015Z,90.85
2018-11-28T10:07:43.937Z,90.65
2018-11-28T10:10:11.686Z,91.06
2018-11-28T10:12:38.607Z,90.29
2018-11-28T10:15:12.884Z,90.68
2018-11-28T10:17:39.767Z,89.58
2018-11-28T10:20:07.649Z,88.86
2018-11-28T10:22:34.529Z,88.63
2018-11-28T10:25:01.416Z,88.11
2018-11-28T10:27:28.274Z,87.60
2018-11-28T10:29:55.154Z,87.98
2018-11-28T10:32:22.034Z,86.58
2018-11-28T10:34:48.908Z,86.55
2018-11-28T10:37:15.973Z,86.41
2018-11-28T10:39:42.856Z,86.46
2018-11-28T10:42:09.737Z,85.50
2018-11-28T10:44:36.613Z,85.44
2018-11-28T10:47:03.511Z,86.52
2018-11-28T10:49:30.397Z,85.83
2018-11-28T10:51:57.318Z,85.69
2018-11-28T10:54:24.226Z,85.83
2018-11-28T10:56:51.142Z,84.73
2018-11-28T10:59:17.913Z,83.25
2018-11-28T11:01:50.877Z,82.84
2018-11-28T11:04:22.032Z,83.49
2018-11-28T11:06:54.507Z,83.37
2018-11-28T11:09:27.191Z,84.67
2018-11-28T11:11:59.639Z,83.24
2018-11-28T11:14:32.232Z,83.67
2018-11-28T11:16:59.012Z,82.17
2018-11-28T11:19:25.796Z,83.38
2018-11-28T11:21:52.589Z,83.58
2018-11-28T11:24:19.357Z,82.87
2018-11-28T11:26:46.145Z,83.37
2018-11-28T11:29:12.960Z,84.03
2018-11-28T11:31:39.741Z,84.59
2018-11-28T11:34:06.516Z,84.60
2018-11-28T11:36:33.292Z,85.95
2018-11-28T11:39:00.192Z,84.73
2018-11-28T11:41:26.985Z,85.42
2018-11-28T11:43:53.756Z,84.43
2018-11-28T11:46:20.545Z,83.39
2018-11-28T11:48:47.310Z,83.36
2018-11-28T11:51:14.121Z,80.86
2018-11-28T11:53:40.882Z,80.60
2018-11-28T11:56:07.668Z,80.66
2018-11-28T11:58:34.442Z,80.30
2018-11-28T12:01:01.222Z,79.99
2018-11-28T12:03:27.990Z,80.11
2018-11-28T12:05:56.121Z,80.97
2018-11-28T12:08:23.728Z,80.67
2018-11-28T12:10:50.489Z,80.80
2018-11-28T12:13:17.385Z,80.62
2018-11-28T12:15:44.118Z,80.50
2018-11-28T12:18:10.896Z,79.62
2018-11-28T12:20:40.133Z,78.69
2018-11-28T12:23:06.965Z,78.82
2018-11-28T12:25:33.776Z,79.37
2018-11-28T12:28:00.572Z,78.58
2018-11-28T12:30:27.340Z,79.44
2018-11-28T12:32:54.119Z,79.58
2018-11-28T12:35:20.883Z,80.94
2018-11-28T12:37:47.666Z,79.85
2018-11-28T12:40:15.275Z,80.32
2018-11-28T12:42:46.387Z,80.70
2018-11-28T12:45:14.132Z,79.87
2018-11-28T12:47:41.608Z,80.95
2018-11-28T12:50:23.683Z,80.25
2018-11-28T12:52:51.081Z,80.98
2018-11-28T12:55:18.372Z,81.22
2018-11-28T12:57:45.181Z,78.83
2018-11-28T13:00:14.132Z,80.50
2018-11-28T13:02:40.925Z,80.30
2018-11-28T13:05:13.292Z,77.97
2018-11-28T13:07:40.156Z,77.00
2018-11-28T13:10:13.480Z,79.24
2018-11-28T13:12:40.429Z,80.07
2018-11-28T13:15:11.052Z,81.11
2018-11-28T13:17:37.892Z,80.54
2018-11-28T13:20:06.201Z,81.36
2018-11-28T13:22:33.088Z,81.12
2018-11-28T13:24:59.847Z,79.72
2018-11-28T13:27:26.632Z,80.31
2018-11-28T13:29:53.397Z,80.09
2018-11-28T13:32:20.200Z,82.07
2018-11-28T13:34:46.961Z,81.38
2018-11-28T13:37:13.784Z,82.12
2018-11-28T13:39:40.543Z,80.28
2018-11-28T13:42:07.368Z,81.04
2018-11-28T13:44:34.136Z,82.28
2018-11-28T13:47:00.913Z,81.54
2018-11-28T13:49:27.680Z,81.86
2018-11-28T13:51:54.461Z,80.46
2018-11-28T13:54:21.947Z,80.93
2018-11-28T13:57:04.814Z,81.52
2018-11-28T13:59:14.792Z,81.11
2018-11-28T14:01:41.569Z,81.17
2018-11-28T14:04:08.344Z,81.41
2018-11-28T14:06:35.122Z,80.82
2018-11-28T14:09:01.930Z,80.60
2018-11-28T14:11:28.673Z,80.47
2018-11-28T14:13:55.444Z,80.85
2018-11-28T14:16:22.227Z,79.97
2018-11-28T14:18:48.997Z,79.12
2018-11-28T14:21:15.835Z,79.77
2018-11-28T14:23:42.600Z,80.59
2018-11-28T14:26:09.436Z,80.61
2018-11-28T14:28:36.176Z,80.73
2018-11-28T14:31:02.960Z,81.69
2018-11-28T14:35:27.165Z,80.53
2018-11-28T14:37:54.025Z,82.28
2018-11-28T14:40:22.826Z,82.60
2018-11-28T14:42:51.628Z,82.95
2018-11-28T14:45:18.782Z,83.32
2018-11-28T14:47:46.202Z,81.55
2018-11-28T14:50:14.798Z,82.88
2018-11-28T14:52:41.597Z,83.69
2018-11-28T14:55:14.392Z,84.30
2018-11-28T14:57:41.189Z,85.29
2018-11-28T15:00:14.237Z,84.23
2018-11-28T15:02:41.115Z,81.86
2018-11-28T15:05:20.873Z,83.45
2018-11-28T15:07:48.936Z,82.22
2018-11-28T15:10:15.765Z,84.43
2018-11-28T15:12:42.613Z,86.13
2018-11-28T15:15:09.383Z,85.65
2018-11-28T15:17:36.217Z,83.38
2018-11-28T15:20:04.484Z,85.32
2018-11-28T15:22:31.273Z,85.68
2018-11-28T15:24:58.161Z,86.65
2018-11-28T15:27:24.945Z,86.79
2018-11-28T15:29:51.732Z,88.18
2018-11-28T15:32:18.516Z,87.99
2018-11-28T15:34:45.277Z,89.31
2018-11-28T15:37:12.164Z,89.32
2018-11-28T15:39:38.920Z,88.53
2018-11-28T15:42:05.713Z,88.54
2018-11-28T15:44:32.473Z,88.51
2018-11-28T15:47:00.539Z,88.52
2018-11-28T15:49:27.746Z,89.17
2018-11-28T15:51:56.089Z,90.95
2018-11-28T15:54:22.884Z,92.63
2018-11-28T15:56:49.641Z,92.33
2018-11-28T15:59:16.438Z,92.58
2018-11-28T16:01:43.188Z,92.61
2018-11-28T16:04:09.975Z,92.09
2018-11-28T16:06:36.732Z,92.87
2018-11-28T16:09:06.529Z,93.45
2018-11-28T16:11:33.321Z,91.55
2018-11-28T16:14:00.109Z,92.88
2018-11-28T16:16:26.868Z,92.96
2018-11-28T16:18:57.858Z,92.78
2018-11-28T16:21:20.453Z,92.99
2018-11-28T16:23:47.233Z,93.38
2018-11-28T16:26:14.003Z,92.60
2018-11-28T16:28:40.820Z,92.15
2018-11-28T16:31:07.606Z,92.28
2018-11-28T16:33:34.457Z,91.91
2018-11-28T16:36:02.068Z,91.37
2018-11-28T16:38:28.844Z,91.24
2018-11-28T16:40:55.644Z,90.56
2018-11-28T16:43:22.435Z,90.99
2018-11-28T16:45:49.280Z,90.37
2018-11-28T16:48:16.081Z,87.77
2018-11-28T16:50:42.837Z,86.02
2018-11-28T16:53:09.669Z,85.09
2018-11-28T16:55:36.432Z,84.69
2018-11-28T16:58:03.241Z,86.68
2018-11-28T17:00:30.774Z,88.70
2018-11-28T17:02:57.574Z,87.97
2018-11-28T17:05:24.339Z,89.26
2018-11-28T17:07:51.537Z,89.46
2018-11-28T17:10:19.592Z,89.75
2018-11-28T17:12:47.433Z,91.11
2018-11-28T17:15:15.233Z,92.06
2018-11-28T17:17:42.152Z,93.06
2018-11-28T17:20:10.441Z,92.38
2018-11-28T17:22:37.221Z,92.26
2018-11-28T17:25:05.256Z,91.46
2018-11-28T17:27:32.362Z,91.15
2018-11-28T17:29:58.885Z,90.60
2018-11-28T17:32:25.678Z,89.78
2018-11-28T17:34:52.472Z,90.06
2018-11-28T17:37:19.232Z,90.30
2018-11-28T17:39:46.029Z,89.47
2018-11-28T17:42:12.857Z,89.74
2018-11-28T17:44:39.718Z,89.70
2018-11-28T17:47:06.472Z,89.96
2018-11-28T17:49:33.271Z,89.75
2018-11-28T17:52:00.044Z,90.51
2018-11-28T17:54:26.881Z,90.90
2018-11-28T17:56:53.652Z,90.56
2018-11-28T17:59:20.429Z,90.48
2018-11-28T18:01:47.290Z,91.02
2018-11-28T18:04:14.085Z,90.78
2018-11-28T18:06:40.854Z,90.51
2018-11-28T18:09:09.540Z,90.02
2018-11-28T18:11:36.312Z,90.51
2018-11-28T18:14:03.180Z,89.30
2018-11-28T18:16:29.991Z,87.73
2018-11-28T18:18:56.772Z,88.87
2018-11-28T18:21:23.540Z,89.17
2018-11-28T18:23:50.457Z,88.33
2018-11-28T18:26:17.224Z,88.21
2018-11-28T18:28:44.168Z,88.56
2018-11-28T18:31:10.969Z,89.44
2018-11-28T18:33:37.752Z,89.17
2018-11-28T18:36:05.014Z,89.85
2018-11-28T18:38:31.781Z,89.43
2018-11-28T18:40:58.564Z,89.61
2018-11-28T18:43:25.328Z,88.41
2018-11-28T18:45:53.417Z,89.39
2018-11-28T18:48:20.185Z,89.61
2018-11-28T18:50:47.005Z,89.60
2018-11-28T18:53:13.865Z,88.21
2018-11-28T18:55:40.645Z,89.30
2018-11-28T18:58:08.728Z,89.42
2018-11-28T19:00:35.544Z,89.98
2018-11-28T19:03:02.365Z,89.82
2018-11-28T19:05:29.148Z,89.82
2018-11-28T19:07:55.936Z,89.90
2018-11-28T19:10:26.328Z,91.12
2018-11-28T19:12:50.702Z,90.75
2018-11-28T19:15:19.525Z,91.64
2018-11-28T19:17:46.938Z,91.74
2018-11-28T19:20:14.657Z,91.93
2018-11-28T19:22:41.621Z,91.43
2018-11-28T19:25:10.480Z,91.84
2018-11-28T19:27:37.230Z,92.08
2018-11-28T19:30:10.236Z,92.96
2018-11-28T19:32:36.801Z,93.04
2018-11-28T19:35:03.993Z,92.38
2018-11-28T19:37:30.785Z,92.93
2018-11-28T19:39:57.577Z,89.83
2018-11-28T19:42:24.353Z,90.79
2018-11-28T19:44:51.161Z,91.27
2018-11-28T19:47:17.924Z,91.05
2018-11-28T19:49:44.741Z,91.08
2018-11-28T19:52:11.518Z,89.68
2018-11-28T19:54:38.281Z,90.78
2018-11-28T19:57:05.388Z,90.27
2018-11-28T19:59:32.160Z,91.41
2018-11-28T20:01:59.183Z,90.99
2018-11-28T20:04:25.969Z,90.98
2018-11-28T20:06:52.914Z,88.69
2018-11-28T20:09:21.394Z,90.03
2018-11-28T20:11:48.169Z,90.02
2018-11-28T20:14:15.226Z,89.69
2018-11-28T20:16:42.025Z,90.67
2018-11-28T20:19:08.797Z,91.21
2018-11-28T20:21:35.596Z,90.86
2018-11-28T20:24:02.379Z,91.37
2018-11-28T20:26:29.173Z,91.68
2018-11-28T20:28:55.945Z,91.91
2018-11-28T20:31:22.752Z,92.42
2018-11-28T20:33:49.522Z,92.38
2018-11-28T20:36:16.314Z,92.85
2018-11-28T20:38:43.118Z,92.89
2018-11-28T20:41:09.907Z,93.44
2018-11-28T20:43:36.657Z,93.55
2018-11-28T20:46:03.453Z,93.32
2018-11-28T20:48:30.228Z,93.64
2018-11-28T20:50:57.023Z,93.63
2018-11-28T20:53:23.817Z,93.91
2018-11-28T20:55:50.732Z,93.32
2018-11-28T20:58:17.508Z,93.26
2018-11-28T21:00:44.289Z,93.22
2018-11-28T21:03:11.086Z,93.56
2018-11-28T21:05:37.856Z,93.34
2018-11-28T21:08:06.449Z,93.73
2018-11-28T21:10:35.104Z,93.81
2018-11-28T21:13:01.976Z,93.78
2018-11-28T21:15:28.749Z,93.78
2018-11-28T21:17:55.532Z,93.27
2018-11-28T21:20:22.496Z,93.05
2018-11-28T21:22:56.282Z,93.15
2018-11-28T21:25:23.053Z,93.61
2018-11-28T21:27:50.280Z,93.03
2018-11-28T21:30:17.954Z,92.66
2018-11-28T21:32:44.733Z,93.07
2018-11-28T21:35:18.472Z,92.77
2018-11-28T21:37:45.251Z,93.51
2018-11-28T21:40:12.116Z,93.50
2018-11-28T21:42:38.900Z,93.78
2018-11-28T21:45:08.116Z,93.47
2018-11-28T21:47:34.900Z,93.79
2018-11-28T21:50:01.661Z,92.77
2018-11-28T21:52:28.448Z,93.41
2018-11-28T21:54:55.212Z,93.11
2018-11-28T21:57:22.044Z,93.29
2018-11-28T21:59:48.826Z,93.65
2018-11-28T22:02:15.617Z,93.47
2018-11-28T22:04:42.404Z,93.68
2018-11-28T22:07:09.197Z,93.69
2018-11-28T22:09:35.964Z,93.99
2018-11-28T22:12:02.760Z,93.92
2018-11-28T22:14:29.534Z,93.09
2018-11-28T22:16:56.330Z,93.13
2018-11-28T22:19:23.103Z,93.40
2018-11-28T22:21:49.900Z,93.55
2018-11-28T22:24:16.684Z,93.45
2018-11-28T22:26:43.580Z,93.63
2018-11-28T22:29:10.369Z,93.19
2018-11-28T22:31:37.141Z,92.62
2018-11-28T22:34:04.168Z,92.81
2018-11-28T22:36:30.928Z,92.31
2018-11-28T22:38:57.737Z,92.59
2018-11-28T22:41:24.498Z,92.27
2018-11-28T22:43:51.285Z,92.49
2018-11-28T22:46:18.044Z,93.39
2018-11-28T22:48:44.830Z,94.27
2018-11-28T22:51:11.616Z,93.58
2018-11-28T22:53:38.395Z,94.41
2018-11-28T22:56:05.180Z,93.89
2018-11-28T22:58:31.970Z,94.38
2018-11-28T23:01:04.550Z,92.86
2018-11-28T23:03:31.428Z,93.64
2018-11-28T23:05:58.225Z,93.73
2018-11-28T23:08:25.001Z,93.06
2018-11-28T23:10:51.764Z,93.54
2018-11-28T23:13:22.851Z,94.42
2018-11-28T23:15:49.629Z,94.97
2018-11-28T23:18:16.412Z,94.22
2018-11-28T23:20:43.184Z,92.01
2018-11-28T23:23:09.972Z,92.46
2018-11-28T23:25:36.932Z,93.52
2018-11-28T23:28:03.741Z,94.24
2018-11-28T23:30:30.508Z,94.59
2018-11-28T23:32:57.305Z,95.14
2018-11-28T23:35:24.177Z,94.95
2018-11-28T23:37:51.332Z,94.77
2018-11-28T23:40:18.922Z,94.71
2018-11-28T23:42:45.717Z,95.16
2018-11-28T23:45:13.042Z,95.05
2018-11-28T23:47:39.832Z,94.88
2018-11-28T23:50:09.078Z,94.33
2018-11-28T23:52:35.834Z,93.88
2018-11-28T23:55:02.736Z,93.65
2018-11-28T23:57:29.493Z,93.52
2018-11-28T23:59:56.363Z,93.73
